Terminal Aerodrome Forecast
Issued by NWS Upton, NY

Home | Current Version | Previous Version | Text Only | Print | Product List | Glossary On
Versions: 1 2 3 4 5 6 7 8 9 10 11 12 13 14 15 16 17 18 19 20 21 22 23 24 25 26 27 28 29
453
FTUS41 KOKX 110240 AAA
TAFJFK
TAF AMD
KJFK 110240Z 1103/1206 28016G23KT P6SM FEW060 OVC090
     FM110700 28015G23KT P6SM BKN035
     FM111200 29020G29KT P6SM FEW050
     FM111400 29023G33KT P6SM BKN050
     FM120400 30016G28KT P6SM FEW040=

USA.gov is the U.S. government's official web portal to all federal, state and local government web resources and services.